createdAt,value
2024-02-06T00:00:27.888Z,95459.00
2024-02-06T00:01:27.951Z,95457.00
2024-02-06T00:02:27.875Z,95455.00
2024-02-06T00:03:27.884Z,95453.00
2024-02-06T00:04:28.071Z,95452.00
2024-02-06T00:05:27.973Z,95448.00
2024-02-06T00:06:27.930Z,95448.00
2024-02-06T00:08:27.983Z,95443.00
2024-02-06T00:09:27.945Z,95442.00
2024-02-06T00:10:28.066Z,95445.00
2024-02-06T00:11:27.958Z,95441.00
2024-02-06T00:12:27.972Z,95437.00
2024-02-06T00:13:28.051Z,95438.00
2024-02-06T00:14:27.980Z,95438.00
2024-02-06T00:15:27.992Z,95435.00
2024-02-06T00:16:28.040Z,95436.00
2024-02-06T00:17:28.048Z,95437.00
2024-02-06T00:18:28.012Z,95438.00
2024-02-06T00:19:28.096Z,95438.00
2024-02-06T00:20:28.213Z,95438.00
2024-02-06T00:21:28.003Z,95439.00
2024-02-06T00:22:28.080Z,95440.00
2024-02-06T00:23:28.066Z,95439.00
2024-02-06T00:24:28.022Z,95439.00
2024-02-06T00:25:28.111Z,95437.00
2024-02-06T00:26:28.019Z,95435.00
2024-02-06T00:27:28.031Z,95436.00
2024-02-06T00:28:28.090Z,95437.00
2024-02-06T00:29:28.043Z,95436.00
2024-02-06T00:30:28.085Z,95433.00
2024-02-06T00:31:28.135Z,95434.00
2024-02-06T00:32:28.105Z,95431.00
2024-02-06T00:33:28.139Z,95430.00
2024-02-06T00:34:28.264Z,95427.00
2024-02-06T00:35:28.219Z,95425.00
2024-02-06T00:36:28.063Z,95427.00
2024-02-06T00:37:28.144Z,95424.00
2024-02-06T00:38:28.083Z,95426.00
2024-02-06T00:39:28.087Z,95424.00
2024-02-06T00:40:28.179Z,95426.00
2024-02-06T00:41:28.129Z,95430.00
2024-02-06T00:42:28.109Z,95429.00
2024-02-06T00:43:28.142Z,95427.00
2024-02-06T00:44:28.169Z,95427.00
2024-02-06T00:45:28.130Z,95424.00
2024-02-06T00:46:28.237Z,95425.00
2024-02-06T00:47:28.182Z,95420.00
2024-02-06T00:48:28.293Z,95420.00
2024-02-06T00:49:28.356Z,95422.00
2024-02-06T00:50:28.382Z,95422.00
2024-02-06T00:51:28.169Z,95420.00
2024-02-06T00:52:28.164Z,95420.00
2024-02-06T00:53:28.161Z,95419.00
2024-02-06T00:54:28.160Z,95420.00
2024-02-06T00:55:28.209Z,95418.00
2024-02-06T00:56:28.172Z,95420.00
2024-02-06T00:57:28.220Z,95418.00
2024-02-06T00:58:28.236Z,95416.00
2024-02-06T00:59:28.253Z,95416.00
2024-02-06T01:00:28.242Z,95416.00
2024-02-06T01:01:28.260Z,95418.00
2024-02-06T01:02:28.220Z,95416.00
2024-02-06T01:03:28.271Z,95419.00
2024-02-06T01:04:28.323Z,95417.00
2024-02-06T01:05:28.265Z,95417.00
2024-02-06T01:06:28.269Z,95418.00
2024-02-06T01:07:28.309Z,95418.00
2024-02-06T01:08:28.265Z,95422.00
2024-02-06T01:09:28.246Z,95423.00
2024-02-06T01:10:28.296Z,95422.00
2024-02-06T01:11:28.260Z,95421.00
2024-02-06T01:12:28.256Z,95421.00
2024-02-06T01:13:28.308Z,95420.00
2024-02-06T01:14:28.264Z,95419.00
2024-02-06T01:15:28.276Z,95417.00
2024-02-06T01:16:28.342Z,95420.00
2024-02-06T01:17:28.285Z,95417.00
2024-02-06T01:18:28.260Z,95417.00
2024-02-06T01:19:28.459Z,95417.00
2024-02-06T01:20:28.301Z,95416.00
2024-02-06T01:21:28.310Z,95416.00
2024-02-06T01:22:28.297Z,95416.00
2024-02-06T01:23:28.303Z,95416.00
2024-02-06T01:24:28.310Z,95414.00
2024-02-06T01:25:28.795Z,95417.00
2024-02-06T01:26:28.297Z,95416.00
2024-02-06T01:27:28.360Z,95418.00
2024-02-06T01:28:28.368Z,95415.00
2024-02-06T01:29:28.315Z,95412.00
2024-02-06T01:30:28.450Z,95412.00
2024-02-06T01:31:28.486Z,95413.00
2024-02-06T01:32:28.424Z,95412.00
2024-02-06T01:33:28.517Z,95412.00
2024-02-06T01:34:28.431Z,95412.00
2024-02-06T01:35:28.445Z,95411.00
2024-02-06T01:36:28.380Z,95408.00
2024-02-06T01:37:28.438Z,95409.00
2024-02-06T01:38:28.410Z,95405.00
2024-02-06T01:39:28.409Z,95402.00
2024-02-06T01:40:28.449Z,95400.00
2024-02-06T01:41:28.397Z,95402.00
2024-02-06T01:42:28.438Z,95403.00
2024-02-06T01:43:28.452Z,95400.00
2024-02-06T01:44:28.452Z,95400.00
2024-02-06T01:45:28.446Z,95400.00
2024-02-06T01:46:28.466Z,95405.00
2024-02-06T01:47:28.505Z,95405.00
2024-02-06T01:48:28.495Z,95404.00
2024-02-06T01:49:28.537Z,95405.00
2024-02-06T01:50:28.548Z,95402.00
2024-02-06T01:51:28.474Z,95406.00
2024-02-06T01:52:28.501Z,95405.00
2024-02-06T01:53:28.487Z,95405.00
2024-02-06T01:54:28.467Z,95402.00
2024-02-06T01:55:28.507Z,95401.00
2024-02-06T01:56:28.501Z,95398.00
2024-02-06T01:57:28.476Z,95395.00
2024-02-06T01:58:28.503Z,95396.00
2024-02-06T01:59:28.494Z,95395.00
2024-02-06T02:00:28.565Z,95395.00
2024-02-06T02:01:28.717Z,95393.00
2024-02-06T02:02:28.537Z,95392.00
2024-02-06T02:03:28.596Z,95393.00
2024-02-06T02:04:28.634Z,95392.00
2024-02-06T02:05:28.769Z,95390.00
2024-02-06T02:06:28.624Z,95386.00
2024-02-06T02:07:28.590Z,95382.00
2024-02-06T02:08:28.566Z,95382.00
2024-02-06T02:09:28.559Z,95385.00
2024-02-06T02:10:28.638Z,95385.00
2024-02-06T02:11:28.585Z,95383.00
2024-02-06T02:12:28.599Z,95381.00
2024-02-06T02:13:28.628Z,95384.00
2024-02-06T02:14:28.596Z,95384.00
2024-02-06T02:15:28.591Z,95382.00
2024-02-06T02:16:28.627Z,95383.00
2024-02-06T02:17:28.666Z,95384.00
2024-02-06T02:18:28.734Z,95381.00
2024-02-06T02:19:28.878Z,95380.00
2024-02-06T02:20:28.675Z,95379.00
2024-02-06T02:21:28.683Z,95380.00
2024-02-06T02:22:28.683Z,95378.00
2024-02-06T02:23:29.975Z,95378.00
2024-02-06T02:24:28.680Z,95373.00
2024-02-06T02:25:28.723Z,95370.00
2024-02-06T02:26:28.702Z,95371.00
2024-02-06T02:27:28.712Z,95375.00
2024-02-06T02:28:28.798Z,95373.00
2024-02-06T02:29:28.745Z,95375.00
2024-02-06T02:30:28.767Z,95372.00
2024-02-06T02:31:28.771Z,95369.00
2024-02-06T02:32:28.863Z,95363.00
2024-02-06T02:33:28.801Z,95362.00
2024-02-06T02:34:28.908Z,95359.00
2024-02-06T02:35:28.783Z,95361.00
2024-02-06T02:36:28.817Z,95358.00
2024-02-06T02:37:28.831Z,95358.00
2024-02-06T02:38:28.865Z,95359.00
2024-02-06T02:39:28.847Z,95356.00
2024-02-06T02:40:28.901Z,95357.00
2024-02-06T02:41:28.839Z,95360.00
2024-02-06T02:42:28.875Z,95361.00
2024-02-06T02:43:28.918Z,95358.00
2024-02-06T02:44:28.880Z,95357.00
2024-02-06T02:45:28.866Z,95354.00
2024-02-06T02:46:28.967Z,95352.00
2024-02-06T02:47:28.953Z,95347.00
2024-02-06T02:48:28.968Z,95347.00
2024-02-06T02:49:29.016Z,95349.00
2024-02-06T02:50:28.940Z,95352.00
2024-02-06T02:51:28.944Z,95350.00
2024-02-06T02:52:29.018Z,95351.00
2024-02-06T02:53:28.988Z,95348.00
2024-02-06T02:54:28.956Z,95347.00
2024-02-06T02:55:29.050Z,95345.00
2024-02-06T02:56:29.006Z,95341.00
2024-02-06T02:57:29.052Z,95344.00
2024-02-06T02:58:29.032Z,95346.00
2024-02-06T02:59:29.088Z,95342.00
2024-02-06T03:00:29.078Z,95341.00
2024-02-06T03:01:29.203Z,95338.00
2024-02-06T03:02:29.117Z,95336.00
2024-02-06T03:03:29.135Z,95336.00
2024-02-06T03:04:29.231Z,95337.00
2024-02-06T03:05:29.207Z,95335.00
2024-02-06T03:06:29.237Z,95335.00
2024-02-06T03:07:29.172Z,95332.00
2024-02-06T03:08:29.153Z,95329.00
2024-02-06T03:09:29.203Z,95327.00
2024-02-06T03:10:29.313Z,95328.00
2024-02-06T03:11:29.194Z,95333.00
2024-02-06T03:12:29.228Z,95332.00
2024-02-06T03:13:29.232Z,95330.00
2024-02-06T03:14:29.236Z,95324.00
2024-02-06T03:15:29.265Z,95321.00
2024-02-06T03:16:29.325Z,95319.00
2024-02-06T03:17:29.315Z,95321.00
2024-02-06T03:18:29.346Z,95322.00
2024-02-06T03:19:29.425Z,95320.00
2024-02-06T03:20:29.346Z,95317.00
2024-02-06T03:21:29.341Z,95317.00
2024-02-06T03:22:29.387Z,95319.00
2024-02-06T03:23:29.353Z,95318.00
2024-02-06T03:24:29.385Z,95318.00
2024-02-06T03:25:29.425Z,95320.00
2024-02-06T03:26:29.424Z,95321.00
2024-02-06T03:27:29.492Z,95322.00
2024-02-06T03:28:29.500Z,95323.00
2024-02-06T03:29:29.477Z,95321.00
2024-02-06T03:30:29.493Z,95321.00
2024-02-06T03:31:29.557Z,95322.00
2024-02-06T03:32:29.510Z,95324.00
2024-02-06T03:33:29.632Z,95326.00
2024-02-06T03:34:29.606Z,95323.00
2024-02-06T03:35:29.594Z,95323.00
2024-02-06T03:36:29.555Z,95321.00
2024-02-06T03:37:29.584Z,95319.00
2024-02-06T03:38:29.555Z,95322.00
2024-02-06T03:39:29.565Z,95325.00
2024-02-06T03:40:29.613Z,95323.00
2024-02-06T03:41:29.598Z,95322.00
2024-02-06T03:42:29.621Z,95323.00
2024-02-06T03:43:29.736Z,95320.00
2024-02-06T03:44:29.647Z,95321.00
2024-02-06T03:45:29.671Z,95318.00
2024-02-06T03:46:29.730Z,95319.00
2024-02-06T03:47:29.705Z,95318.00
2024-02-06T03:48:29.751Z,95317.00
2024-02-06T03:49:29.766Z,95316.00
2024-02-06T03:50:29.743Z,95319.00
2024-02-06T03:51:29.756Z,95320.00
2024-02-06T03:52:29.816Z,95319.00
2024-02-06T03:53:29.748Z,95317.00
2024-02-06T03:54:29.793Z,95317.00
2024-02-06T03:55:29.860Z,95317.00
2024-02-06T03:56:29.780Z,95315.00
2024-02-06T03:57:29.962Z,95315.00
2024-02-06T03:58:29.835Z,95317.00
2024-02-06T03:59:29.844Z,95314.00
2024-02-06T04:00:29.873Z,95311.00
2024-02-06T04:01:29.986Z,95310.00
2024-02-06T04:02:29.859Z,95310.00
2024-02-06T04:03:29.973Z,95312.00
2024-02-06T04:04:29.938Z,95310.00
2024-02-06T04:05:29.916Z,95308.00
2024-02-06T04:06:29.933Z,95305.00
2024-02-06T04:07:29.987Z,95306.00
2024-02-06T04:08:29.939Z,95306.00
2024-02-06T04:09:29.909Z,95306.00
2024-02-06T04:10:30.093Z,95304.00
2024-02-06T04:11:29.975Z,95307.00
2024-02-06T04:12:29.983Z,95308.00
2024-02-06T04:13:29.985Z,95310.00
2024-02-06T04:14:30.063Z,95304.00
2024-02-06T04:15:30.085Z,95302.00
2024-02-06T04:16:30.077Z,95302.00
2024-02-06T04:17:30.081Z,95303.00
2024-02-06T04:18:30.099Z,95303.00
2024-02-06T04:19:30.180Z,95302.00
2024-02-06T04:20:30.047Z,95301.00
2024-02-06T04:21:30.082Z,95303.00
2024-02-06T04:22:30.169Z,95302.00
2024-02-06T04:23:30.111Z,95303.00
2024-02-06T04:24:30.137Z,95304.00
2024-02-06T04:25:30.192Z,95301.00
2024-02-06T04:26:30.167Z,95296.00
2024-02-06T04:27:30.179Z,95295.00
2024-02-06T04:28:30.241Z,95294.00
2024-02-06T04:29:30.244Z,95293.00
2024-02-06T04:30:30.225Z,95295.00
2024-02-06T04:31:30.285Z,95300.00
2024-02-06T04:32:37.646Z,95301.00
2024-02-06T04:33:37.653Z,95299.00
2024-02-06T04:34:37.548Z,95296.00
2024-02-06T04:35:37.505Z,95297.00
2024-02-06T04:36:37.532Z,95300.00
2024-02-06T04:37:37.585Z,95298.00
2024-02-06T04:38:37.512Z,95294.00
2024-02-06T04:39:37.526Z,95291.00
2024-02-06T04:40:37.556Z,95293.00
2024-02-06T04:41:37.543Z,95297.00
2024-02-06T04:42:37.525Z,95295.00
2024-02-06T04:43:37.542Z,95292.00
2024-02-06T04:44:37.548Z,95291.00
2024-02-06T04:45:37.535Z,95292.00
2024-02-06T04:46:37.559Z,95290.00
2024-02-06T04:47:37.578Z,95291.00
2024-02-06T04:48:37.568Z,95292.00
2024-02-06T04:49:37.737Z,95290.00
2024-02-06T04:50:37.508Z,95291.00
2024-02-06T04:51:37.547Z,95289.00
2024-02-06T04:52:41.202Z,95288.00
2024-02-06T04:53:37.606Z,95287.00
2024-02-06T04:54:37.571Z,95289.00
2024-02-06T04:55:37.665Z,95287.00
2024-02-06T04:56:37.555Z,95287.00
2024-02-06T04:57:37.521Z,95287.00
2024-02-06T04:58:37.638Z,95282.00
2024-02-06T04:59:37.552Z,95279.00
2024-02-06T05:00:37.615Z,95277.00
2024-02-06T05:01:37.733Z,95277.00
2024-02-06T05:02:37.558Z,95280.00
2024-02-06T05:03:37.596Z,95279.00
2024-02-06T05:04:37.711Z,95276.00
2024-02-06T05:05:37.590Z,95276.00
2024-02-06T05:06:37.648Z,95276.00
2024-02-06T05:07:37.610Z,95277.00
2024-02-06T05:08:37.567Z,95277.00
2024-02-06T05:09:37.658Z,95278.00
2024-02-06T05:10:37.689Z,95273.00
2024-02-06T05:11:37.572Z,95274.00
2024-02-06T05:12:37.574Z,95271.00
2024-02-06T05:13:37.729Z,95271.00
2024-02-06T05:14:37.608Z,95273.00
2024-02-06T05:15:37.563Z,95271.00
2024-02-06T05:16:37.721Z,95270.00
2024-02-06T05:17:37.768Z,95270.00
2024-02-06T05:18:37.718Z,95272.00
2024-02-06T05:19:37.586Z,95269.00
2024-02-06T05:20:37.585Z,95268.00
2024-02-06T05:21:37.589Z,95269.00
2024-02-06T05:22:37.635Z,95268.00
2024-02-06T05:23:37.593Z,95270.00
2024-02-06T05:24:37.590Z,95270.00
2024-02-06T05:25:37.669Z,95266.00
2024-02-06T05:26:37.604Z,95262.00
2024-02-06T05:27:37.597Z,95264.00
2024-02-06T05:28:37.694Z,95263.00
2024-02-06T05:29:37.590Z,95263.00
2024-02-06T05:30:37.614Z,95265.00
2024-02-06T05:31:37.668Z,95262.00
2024-02-06T05:32:37.662Z,95262.00
2024-02-06T05:33:37.641Z,95266.00
2024-02-06T05:34:37.752Z,95265.00
2024-02-06T05:35:37.639Z,95263.00
2024-02-06T05:36:37.614Z,95265.00
2024-02-06T05:37:37.626Z,95265.00
2024-02-06T05:38:37.623Z,95265.00
2024-02-06T05:39:40.290Z,95264.00
2024-02-06T05:40:37.749Z,95264.00
2024-02-06T05:41:37.632Z,95261.00
2024-02-06T05:42:37.628Z,95263.00
2024-02-06T05:43:37.729Z,95259.00
2024-02-06T05:44:37.636Z,95260.00
2024-02-06T05:45:37.683Z,95268.00
2024-02-06T05:46:37.661Z,95266.00
2024-02-06T05:47:37.643Z,95265.00
2024-02-06T05:48:40.470Z,95261.00
2024-02-06T05:49:37.710Z,95261.00
2024-02-06T05:50:37.795Z,95261.00
2024-02-06T05:51:37.661Z,95262.00
2024-02-06T05:52:37.699Z,95264.00
2024-02-06T05:53:37.645Z,95267.00
2024-02-06T05:54:37.642Z,95264.00
2024-02-06T05:55:37.734Z,95262.00
2024-02-06T05:56:37.687Z,95262.00
2024-02-06T05:57:37.657Z,95262.00
2024-02-06T05:58:37.836Z,95260.00
2024-02-06T05:59:37.655Z,95262.00
2024-02-06T06:00:37.664Z,95260.00
2024-02-06T06:01:37.764Z,95261.00
2024-02-06T06:02:37.681Z,95258.00
2024-02-06T06:03:37.678Z,95259.00
2024-02-06T06:04:37.801Z,95262.00
2024-02-06T06:05:37.730Z,95262.00
2024-02-06T06:06:37.709Z,95261.00
2024-02-06T06:07:37.811Z,95263.00
2024-02-06T06:08:37.664Z,95264.00
2024-02-06T06:09:37.692Z,95263.00
2024-02-06T06:10:37.699Z,95262.00
2024-02-06T06:11:37.702Z,95261.00
2024-02-06T06:12:37.694Z,95259.00
2024-02-06T06:13:37.833Z,95259.00
2024-02-06T06:14:37.668Z,95261.00
2024-02-06T06:15:37.731Z,95267.00
2024-02-06T06:16:37.729Z,95265.00
2024-02-06T06:17:37.742Z,95266.00
2024-02-06T06:18:37.743Z,95266.00
2024-02-06T06:19:37.898Z,95265.00
2024-02-06T06:20:37.728Z,95266.00
2024-02-06T06:21:39.851Z,95268.00
2024-02-06T06:22:37.831Z,95269.00
2024-02-06T06:23:37.705Z,95269.00
2024-02-06T06:24:37.847Z,95265.00
2024-02-06T06:25:37.744Z,95264.00
2024-02-06T06:26:37.704Z,95268.00
2024-02-06T06:27:37.702Z,95268.00
2024-02-06T06:28:38.749Z,95266.00
2024-02-06T06:29:37.729Z,95265.00
2024-02-06T06:30:37.721Z,95264.00
2024-02-06T06:31:37.769Z,95265.00
2024-02-06T06:32:37.755Z,95265.00
2024-02-06T06:33:37.814Z,95264.00
2024-02-06T06:34:37.802Z,95263.00
2024-02-06T06:35:37.765Z,95259.00
2024-02-06T06:36:37.725Z,95260.00
2024-02-06T06:37:39.442Z,95258.00
2024-02-06T06:38:37.724Z,95259.00
2024-02-06T06:39:37.727Z,95260.00
2024-02-06T06:40:37.766Z,95262.00
2024-02-06T06:41:37.749Z,95262.00
2024-02-06T06:42:37.750Z,95263.00
2024-02-06T06:43:37.763Z,95260.00
2024-02-06T06:44:37.722Z,95265.00
2024-02-06T06:45:37.755Z,95259.00
2024-02-06T06:46:37.805Z,95254.00
2024-02-06T06:47:37.758Z,95253.00
2024-02-06T06:48:37.791Z,95250.00
2024-02-06T06:49:37.890Z,95249.00
2024-02-06T06:50:37.854Z,95250.00
2024-02-06T06:51:37.875Z,95254.00
2024-02-06T06:52:37.991Z,95237.00
2024-02-06T06:53:37.879Z,95248.00
2024-02-06T06:54:38.977Z,95246.00
2024-02-06T06:55:38.025Z,95251.00
2024-02-06T06:56:37.907Z,95251.00
2024-02-06T06:57:37.914Z,95247.00
2024-02-06T06:58:38.039Z,95246.00
2024-02-06T06:59:38.073Z,95245.00
2024-02-06T07:00:38.090Z,95244.00
2024-02-06T07:01:38.294Z,95240.00
2024-02-06T07:02:38.230Z,95240.00
2024-02-06T07:03:38.286Z,95244.00
2024-02-06T07:04:38.414Z,95250.00
2024-02-06T07:05:38.452Z,95251.00
2024-02-06T07:06:39.505Z,95251.00
2024-02-06T07:07:38.602Z,95251.00
2024-02-06T07:08:38.554Z,95251.00
2024-02-06T07:09:38.565Z,95249.00
2024-02-06T07:10:38.688Z,95250.00
2024-02-06T07:11:38.656Z,95250.00
2024-02-06T07:12:38.670Z,95247.00
2024-02-06T07:13:38.850Z,95244.00
2024-02-06T07:14:38.797Z,95247.00
2024-02-06T07:15:38.790Z,95247.00
2024-02-06T07:16:38.880Z,95247.00
2024-02-06T07:17:38.893Z,95250.00
2024-02-06T07:18:38.917Z,95249.00
2024-02-06T07:19:38.998Z,95250.00
2024-02-06T07:20:38.878Z,95250.00
2024-02-06T07:21:38.898Z,95251.00
2024-02-06T07:22:39.040Z,95253.00
2024-02-06T07:23:38.902Z,95252.00
2024-02-06T07:24:38.923Z,95250.00
2024-02-06T07:25:39.080Z,95250.00
2024-02-06T07:26:38.909Z,95252.00
2024-02-06T07:27:38.926Z,95257.00
2024-02-06T07:28:38.997Z,95256.00
2024-02-06T07:29:38.976Z,95254.00
2024-02-06T07:30:40.834Z,95256.00
2024-02-06T07:31:39.148Z,95252.00
2024-02-06T07:32:42.078Z,95251.00
2024-02-06T07:33:39.201Z,95252.00
2024-02-06T07:34:39.196Z,95255.00
2024-02-06T07:35:39.070Z,95256.00
2024-02-06T07:36:39.044Z,95255.00
2024-02-06T07:37:39.096Z,95251.00
2024-02-06T07:38:39.060Z,95252.00
2024-02-06T07:39:39.070Z,95252.00
2024-02-06T07:40:39.145Z,95252.00
2024-02-06T07:41:39.065Z,95250.00
2024-02-06T07:42:39.075Z,95249.00
2024-02-06T07:43:39.094Z,95250.00
2024-02-06T07:44:39.108Z,95250.00
2024-02-06T07:45:39.060Z,95249.00
2024-02-06T07:46:39.151Z,95248.00
2024-02-06T07:47:39.081Z,95250.00
2024-02-06T07:48:39.096Z,95250.00
2024-02-06T07:49:39.150Z,95251.00
2024-02-06T07:50:39.079Z,95252.00
2024-02-06T07:51:39.080Z,95251.00
2024-02-06T07:52:39.241Z,95251.00
2024-02-06T07:53:39.116Z,95249.00
2024-02-06T07:54:39.083Z,95252.00
2024-02-06T07:55:39.190Z,95256.00
2024-02-06T07:56:39.183Z,95254.00
2024-02-06T07:57:39.090Z,95250.00
2024-02-06T07:58:39.157Z,95251.00
2024-02-06T07:59:39.081Z,95253.00
2024-02-06T08:00:39.140Z,95252.00
2024-02-06T08:01:39.211Z,95249.00
2024-02-06T08:02:39.093Z,95246.00
2024-02-06T08:03:39.110Z,95249.00
2024-02-06T08:04:39.187Z,95252.00
2024-02-06T08:05:39.226Z,95255.00
2024-02-06T08:06:39.184Z,95253.00
2024-02-06T08:07:39.146Z,95251.00
2024-02-06T08:08:39.105Z,95256.00
2024-02-06T08:09:39.109Z,95259.00
2024-02-06T08:10:39.217Z,95262.00
2024-02-06T08:11:39.135Z,95261.00
2024-02-06T08:12:39.137Z,95256.00
2024-02-06T08:13:39.186Z,95256.00
2024-02-06T08:14:39.176Z,95256.00
2024-02-06T08:15:39.174Z,95258.00
2024-02-06T08:16:39.182Z,95255.00
2024-02-06T08:17:39.184Z,95257.00
2024-02-06T08:18:39.257Z,95263.00
2024-02-06T08:19:39.194Z,95266.00
2024-02-06T08:20:39.149Z,95268.00
2024-02-06T08:21:39.120Z,95266.00
2024-02-06T08:22:39.138Z,95266.00
2024-02-06T08:23:39.133Z,95271.00
2024-02-06T08:24:39.189Z,95270.00
2024-02-06T08:25:39.196Z,95270.00
2024-02-06T08:26:39.156Z,95269.00
2024-02-06T08:27:39.119Z,95271.00
2024-02-06T08:28:39.240Z,95273.00
2024-02-06T08:29:39.135Z,95269.00
2024-02-06T08:30:39.140Z,95270.00
2024-02-06T08:31:39.267Z,95273.00
2024-02-06T08:32:39.197Z,95268.00
2024-02-06T08:33:39.170Z,95263.00
2024-02-06T08:34:39.218Z,95263.00
2024-02-06T08:35:39.253Z,95266.00
2024-02-06T08:36:39.214Z,95266.00
2024-02-06T08:37:39.274Z,95261.00
2024-02-06T08:38:39.309Z,95261.00
2024-02-06T08:39:39.269Z,95259.00
2024-02-06T08:40:39.384Z,95262.00
2024-02-06T08:41:39.373Z,95260.00
2024-02-06T08:42:39.457Z,95256.00
2024-02-06T08:43:46.056Z,95258.00
2024-02-06T08:44:40.503Z,95253.00
2024-02-06T08:45:39.480Z,95254.00
2024-02-06T08:46:39.573Z,95260.00
2024-02-06T08:47:39.520Z,95258.00
2024-02-06T08:48:40.261Z,95254.00
2024-02-06T08:49:39.582Z,95248.00
2024-02-06T08:50:39.590Z,95253.00
2024-02-06T08:51:39.521Z,95253.00
2024-02-06T08:52:39.510Z,95254.00
2024-02-06T08:53:39.506Z,95252.00
2024-02-06T08:54:39.529Z,95251.00
2024-02-06T08:55:39.690Z,95248.00
2024-02-06T08:56:39.531Z,95244.00
2024-02-06T08:57:39.577Z,95243.00
2024-02-06T08:58:39.613Z,95242.00
2024-02-06T08:59:39.616Z,95244.00
2024-02-06T09:00:39.705Z,95246.00
2024-02-06T09:01:39.681Z,95247.00
2024-02-06T09:02:39.601Z,95243.00
2024-02-06T09:03:39.680Z,95245.00
2024-02-06T09:04:39.673Z,95244.00
2024-02-06T09:05:39.790Z,95244.00
2024-02-06T09:06:39.733Z,95243.00
2024-02-06T09:07:39.722Z,95239.00
2024-02-06T09:08:39.676Z,95242.00
2024-02-06T09:09:39.660Z,95238.00
2024-02-06T09:10:39.700Z,95237.00
2024-02-06T09:11:39.685Z,95238.00
2024-02-06T09:12:39.685Z,95239.00
2024-02-06T09:13:39.746Z,95241.00
2024-02-06T09:14:41.778Z,95234.00
2024-02-06T09:15:39.736Z,95232.00
2024-02-06T09:16:39.767Z,95231.00
2024-02-06T09:17:39.747Z,95231.00
2024-02-06T09:18:39.802Z,95232.00
2024-02-06T09:19:42.407Z,95231.00
2024-02-06T09:20:39.858Z,95232.00
2024-02-06T09:21:39.743Z,95232.00
2024-02-06T09:22:39.877Z,95231.00
2024-02-06T09:23:39.726Z,95231.00
2024-02-06T09:24:39.737Z,95232.00
2024-02-06T09:25:39.768Z,95230.00
2024-02-06T09:26:39.752Z,95226.00
2024-02-06T09:27:43.414Z,95223.00
2024-02-06T09:28:39.903Z,95222.00
2024-02-06T09:29:39.779Z,95224.00
2024-02-06T09:30:39.729Z,95221.00
2024-02-06T09:31:39.773Z,95218.00
2024-02-06T09:32:39.783Z,95218.00
2024-02-06T09:33:39.922Z,95220.00
2024-02-06T09:34:39.801Z,95220.00
2024-02-06T09:35:39.828Z,95220.00
2024-02-06T09:36:39.768Z,95225.00
2024-02-06T09:37:39.867Z,95222.00
2024-02-06T09:38:39.768Z,95221.00
2024-02-06T09:39:39.768Z,95217.00
2024-02-06T09:40:43.845Z,95214.00
2024-02-06T09:41:39.783Z,95215.00
2024-02-06T09:42:39.771Z,95217.00
2024-02-06T09:43:39.863Z,95215.00
2024-02-06T09:44:39.753Z,95215.00
2024-02-06T09:45:39.792Z,95213.00
2024-02-06T09:46:39.905Z,95210.00
2024-02-06T09:47:40.024Z,95207.00
2024-02-06T09:48:39.751Z,95209.00
2024-02-06T09:49:39.867Z,95211.00
2024-02-06T09:50:39.784Z,95211.00
2024-02-06T09:51:39.794Z,95202.00
2024-02-06T09:52:39.812Z,95203.00
2024-02-06T09:53:39.761Z,95203.00
2024-02-06T09:54:39.809Z,95204.00
2024-02-06T09:55:39.914Z,95206.00
2024-02-06T09:56:39.844Z,95203.00
2024-02-06T09:57:39.816Z,95199.00
2024-02-06T09:58:39.817Z,95205.00
2024-02-06T09:59:39.824Z,95203.00
2024-02-06T10:00:39.818Z,95202.00
2024-02-06T10:01:39.925Z,95201.00
2024-02-06T10:02:39.815Z,95205.00
2024-02-06T10:03:39.832Z,95201.00
2024-02-06T10:04:39.913Z,95198.00
2024-02-06T10:05:39.864Z,95203.00
2024-02-06T10:06:39.891Z,95210.00
2024-02-06T10:07:39.910Z,95211.00
2024-02-06T10:08:39.832Z,95208.00
2024-02-06T10:09:39.807Z,95204.00
2024-02-06T10:10:39.909Z,95202.00
2024-02-06T10:11:39.833Z,95207.00
2024-02-06T10:12:39.862Z,95208.00
2024-02-06T10:13:39.917Z,95210.00
2024-02-06T10:14:39.816Z,95209.00
2024-02-06T10:15:39.887Z,95204.00
2024-02-06T10:16:40.079Z,95200.00
2024-02-06T10:17:40.088Z,95203.00
2024-02-06T10:18:40.090Z,95201.00
2024-02-06T10:19:40.235Z,95201.00
2024-02-06T10:20:40.238Z,95197.00
2024-02-06T10:21:40.270Z,95195.00
2024-02-06T10:22:40.464Z,95196.00
2024-02-06T10:23:40.435Z,95197.00
2024-02-06T10:24:40.490Z,95194.00
2024-02-06T10:25:40.589Z,95192.00
2024-02-06T10:26:40.610Z,95186.00
2024-02-06T10:27:40.684Z,95186.00
2024-02-06T10:28:40.807Z,95186.00
2024-02-06T10:29:40.804Z,95184.00
2024-02-06T10:30:40.863Z,95183.00
2024-02-06T10:31:41.096Z,95184.00
2024-02-06T10:32:41.076Z,95183.00
2024-02-06T10:33:42.157Z,95178.00
2024-02-06T10:34:41.306Z,95177.00
2024-02-06T10:35:41.561Z,95177.00
2024-02-06T10:36:41.430Z,95174.00
2024-02-06T10:37:41.408Z,95171.00
2024-02-06T10:38:41.392Z,95172.00
2024-02-06T10:39:41.474Z,95166.00
2024-02-06T10:40:41.561Z,95166.00
2024-02-06T10:42:00.901Z,95165.00
2024-02-06T10:44:41.667Z,95163.00
2024-02-06T10:45:41.607Z,95161.00
2024-02-06T10:46:41.679Z,95157.00
2024-02-06T10:47:41.977Z,95154.00
2024-02-06T10:48:41.663Z,95148.00
2024-02-06T10:49:41.742Z,95142.00
2024-02-06T10:50:42.490Z,95138.00
2024-02-06T10:51:41.679Z,95140.00
2024-02-06T10:52:41.705Z,95141.00
2024-02-06T10:53:41.645Z,95141.00
2024-02-06T10:54:41.706Z,95136.00
2024-02-06T10:55:41.725Z,95131.00
2024-02-06T10:56:41.663Z,95128.00
2024-02-06T10:57:41.679Z,95129.00
2024-02-06T10:58:41.942Z,95127.00
2024-02-06T10:59:41.704Z,95125.00
2024-02-06T11:00:41.744Z,95119.00
2024-02-06T11:01:41.807Z,95118.00
2024-02-06T11:02:41.686Z,95118.00
2024-02-06T11:03:41.702Z,95117.00
2024-02-06T11:04:41.713Z,95111.00
2024-02-06T11:05:41.718Z,95109.00
2024-02-06T11:06:41.725Z,95111.00
2024-02-06T11:07:41.770Z,95113.00
2024-02-06T11:08:41.680Z,95111.00
2024-02-06T11:09:41.688Z,95108.00
2024-02-06T11:10:41.785Z,95104.00
2024-02-06T11:11:41.677Z,95100.00
2024-02-06T11:12:41.662Z,95099.00
2024-02-06T11:13:41.814Z,95097.00
2024-02-06T11:14:41.693Z,95096.00
2024-02-06T11:15:41.722Z,95096.00
2024-02-06T11:16:41.856Z,95100.00
2024-02-06T11:17:41.869Z,95098.00
2024-02-06T11:18:41.854Z,95098.00
2024-02-06T11:19:41.924Z,95096.00
2024-02-06T11:20:41.883Z,95092.00
2024-02-06T11:21:41.928Z,95090.00
2024-02-06T11:22:42.132Z,95087.00
2024-02-06T11:23:41.948Z,95087.00
2024-02-06T11:24:41.972Z,95083.00
2024-02-06T11:25:42.050Z,95080.00
2024-02-06T11:26:42.052Z,95082.00
2024-02-06T11:27:42.016Z,95082.00
2024-02-06T11:28:42.133Z,95081.00
2024-02-06T11:29:42.068Z,95077.00
2024-02-06T11:30:42.104Z,95073.00
2024-02-06T11:31:42.301Z,95077.00
2024-02-06T11:32:42.247Z,95079.00
2024-02-06T11:33:42.267Z,95077.00
2024-02-06T11:34:42.333Z,95076.00
2024-02-06T11:35:42.224Z,95073.00
2024-02-06T11:36:42.207Z,95075.00
2024-02-06T11:37:42.271Z,95075.00
2024-02-06T11:38:42.231Z,95079.00
2024-02-06T11:39:42.267Z,95074.00
2024-02-06T11:40:42.337Z,95071.00
2024-02-06T11:41:42.332Z,95067.00
2024-02-06T11:42:42.313Z,95059.00
2024-02-06T11:43:42.654Z,95056.00
2024-02-06T11:44:42.356Z,95057.00
2024-02-06T11:45:43.122Z,95060.00
2024-02-06T11:46:42.535Z,95058.00
2024-02-06T11:47:42.581Z,95054.00